Time;durP1;ratioP1;P1;durP2;ratioP2;P2;SDS_P1;SDS_P2;PMS_P1;PMS_P2;Temp;Humidity;BMP_temperature;BMP_pressure;BME280_temperature;BME280_humidity;BME280_pressure;Samples;Min_cycle;Max_cycle;Signal;HPM_P1;HPM_P2
2023/06/23 00:00:28;;;;;;;17.42;15.63;;;25.10;55.80;;;;;;4986518;28;114558;-79
2023/06/23 00:02:58;;;;;;;20.38;18.27;;;25.10;55.70;;;;;;4987714;28;114706;-80
2023/06/23 00:05:25;;;;;;;17.95;16.08;;;25.10;55.60;;;;;;4965862;28;114904;-79
2023/06/23 00:07:53;;;;;;;17.80;16.10;;;25.10;55.70;;;;;;4966011;28;115131;-79
2023/06/23 00:10:20;;;;;;;19.83;17.83;;;25.20;55.60;;;;;;4981337;28;114298;-80
2023/06/23 00:12:47;;;;;;;19.27;17.30;;;25.20;55.60;;;;;;4982181;28;114515;-79
2023/06/23 00:15:15;;;;;;;19.15;17.23;;;25.30;55.50;;;;;;4964739;28;115148;-80
2023/06/23 00:17:46;;;;;;;19.67;17.58;;;25.30;55.40;;;;;;4980619;28;114687;-80
2023/06/23 00:20:14;;;;;;;20.90;18.90;;;25.30;55.50;;;;;;4965009;28;114659;-80
2023/06/23 00:22:42;;;;;;;19.55;17.60;;;25.30;55.40;;;;;;4966047;28;114582;-79
2023/06/23 00:25:09;;;;;;;18.48;16.55;;;25.30;55.50;;;;;;4964674;28;114965;-80
2023/06/23 00:27:45;;;;;;;18.63;16.83;;;25.20;55.50;;;;;;4982405;28;114875;-79
2023/06/23 00:30:13;;;;;;;18.45;16.67;;;25.20;55.50;;;;;;4968509;28;114570;-81
2023/06/23 00:32:40;;;;;;;19.88;17.67;;;25.20;55.80;;;;;;4970230;28;114307;-80
2023/06/23 00:35:08;;;;;;;18.60;16.73;;;25.20;55.80;;;;;;4976555;28;114362;-80
2023/06/23 00:37:38;;;;;;;18.50;16.63;;;25.20;55.70;;;;;;4985196;28;114716;-80
2023/06/23 00:40:11;;;;;;;21.35;19.15;;;25.20;55.80;;;;;;4987008;28;114493;-79
2023/06/23 00:42:43;;;;;;;18.57;16.67;;;25.20;55.80;;;;;;4969339;28;117327;-80
2023/06/23 00:45:11;;;;;;;18.35;16.55;;;25.10;55.80;;;;;;4984182;28;117270;-79
2023/06/23 00:47:38;;;;;;;19.23;17.42;;;25.10;55.90;;;;;;4964023;28;118095;-80
2023/06/23 00:50:06;;;;;;;19.77;17.75;;;25.10;55.90;;;;;;4950084;28;114269;-80
2023/06/23 00:52:33;;;;;;;17.40;15.68;;;25.10;55.80;;;;;;4966500;28;114346;-81
2023/06/23 00:55:01;;;;;;;17.95;16.10;;;25.10;55.80;;;;;;4965036;28;114891;-80
2023/06/23 00:57:28;;;;;;;18.77;16.95;;;25.10;55.90;;;;;;4980847;28;114723;-80
2023/06/23 00:59:56;;;;;;;18.67;16.63;;;25.00;55.90;;;;;;4965544;28;114515;-80
2023/06/23 01:02:23;;;;;;;20.65;17.05;;;25.10;55.90;;;;;;4965184;28;114332;-80
2023/06/23 01:04:51;;;;;;;18.63;16.92;;;25.10;56.00;;;;;;4965327;28;114904;-80
2023/06/23 01:08:06;;;;;;;20.98;18.98;;;25.10;55.80;;;;;;4980746;28;114760;-81
2023/06/23 01:10:53;;;;;;;18.35;16.45;;;25.20;55.80;;;;;;4919616;28;114627;-81
2023/06/23 01:13:34;;;;;;;19.92;18.02;;;25.10;55.70;;;;;;4962326;28;114355;-80
2023/06/23 01:16:07;;;;;;;18.58;16.55;;;25.10;56.00;;;;;;4965237;28;116300;-81
2023/06/23 01:18:38;;;;;;;17.17;15.55;;;25.10;56.10;;;;;;4964604;28;115038;-81
2023/06/23 01:21:06;;;;;;;18.52;16.73;;;25.10;56.10;;;;;;4966368;28;114223;-81
2023/06/23 01:24:05;;;;;;;18.25;16.33;;;25.00;56.00;;;;;;4962851;28;114473;-80
2023/06/23 01:26:38;;;;;;;17.17;15.57;;;25.10;55.90;;;;;;4963687;28;115576;-80
2023/06/23 01:29:08;;;;;;;17.92;16.02;;;25.10;56.00;;;;;;4964576;28;114762;-81
2023/06/23 01:31:43;;;;;;;16.92;15.23;;;25.00;56.00;;;;;;4980981;28;114261;-81
2023/06/23 01:34:11;;;;;;;13.75;12.27;;;24.90;56.10;;;;;;4964776;28;114501;-81
2023/06/23 01:36:43;;;;;;;14.65;12.85;;;24.80;56.40;;;;;;4977364;28;115333;-80
2023/06/23 01:39:14;;;;;;;11.90;10.20;;;24.60;56.50;;;;;;4979919;28;114709;-80
2023/06/23 01:41:59;;;;;;;14.82;11.10;;;24.50;56.60;;;;;;4965895;28;114373;-80
2023/06/23 01:44:29;;;;;;;12.15;9.82;;;24.30;57.00;;;;;;4964418;28;114188;-80
2023/06/23 01:46:58;;;;;;;14.32;12.73;;;24.30;57.10;;;;;;4963324;28;115086;-81
2023/06/23 01:49:27;;;;;;;13.70;12.32;;;24.30;57.50;;;;;;4979226;28;114733;-80
2023/06/23 01:51:54;;;;;;;13.70;12.30;;;24.30;57.60;;;;;;4974181;28;114162;-80
2023/06/23 01:54:21;;;;;;;14.43;12.40;;;24.40;57.30;;;;;;4980630;28;114280;-80
2023/06/23 01:56:48;;;;;;;16.45;13.32;;;24.60;57.00;;;;;;4979351;28;114989;-81
2023/06/23 01:59:15;;;;;;;14.55;13.10;;;24.60;56.80;;;;;;4962775;28;114802;-80
2023/06/23 02:01:43;;;;;;;13.98;12.48;;;24.60;57.10;;;;;;4964239;28;114471;-81
2023/06/23 02:04:11;;;;;;;14.10;12.65;;;24.70;56.70;;;;;;4963491;28;114571;-81
2023/06/23 02:06:41;;;;;;;13.60;12.07;;;24.80;56.70;;;;;;4967903;28;115515;-80
2023/06/23 02:09:11;;;;;;;15.80;14.15;;;24.90;56.50;;;;;;4983456;28;114728;-80
2023/06/23 02:11:41;;;;;;;13.82;12.43;;;25.00;56.30;;;;;;5000146;28;114582;-80
2023/06/23 02:14:09;;;;;;;13.52;12.20;;;25.10;56.20;;;;;;4972689;28;114489;-79
2023/06/23 02:16:36;;;;;;;16.15;12.95;;;25.20;56.00;;;;;;4978512;28;114901;-80
2023/06/23 02:19:04;;;;;;;15.65;12.77;;;25.30;55.80;;;;;;4962952;28;115228;-81
2023/06/23 02:21:31;;;;;;;15.07;13.48;;;25.30;55.50;;;;;;4980296;28;114615;-81
2023/06/23 02:24:02;;;;;;;15.10;13.57;;;25.30;55.40;;;;;;4980301;28;114643;-80
2023/06/23 02:26:30;;;;;;;17.42;14.52;;;25.30;55.20;;;;;;4979277;28;114841;-80
2023/06/23 02:28:59;;;;;;;14.55;13.05;;;25.40;55.20;;;;;;4962588;28;114633;-80
2023/06/23 02:31:27;;;;;;;16.38;14.60;;;25.40;55.10;;;;;;4970355;28;114256;-81
2023/06/23 02:33:57;;;;;;;18.73;16.73;;;25.30;55.20;;;;;;4985151;28;114442;-81
2023/06/23 02:36:28;;;;;;;17.65;15.85;;;25.20;55.50;;;;;;4964235;28;115699;-81
2023/06/23 02:38:57;;;;;;;16.00;14.13;;;24.80;56.20;;;;;;4979732;28;114635;-80
2023/06/23 02:41:25;;;;;;;16.55;13.55;;;24.60;56.80;;;;;;4980430;28;114452;-81
2023/06/23 02:43:54;;;;;;;16.63;14.05;;;24.70;57.00;;;;;;4980286;28;114348;-80
2023/06/23 02:46:24;;;;;;;16.35;14.35;;;24.80;56.80;;;;;;4976030;28;116244;-81
2023/06/23 02:48:54;;;;;;;15.30;13.65;;;24.80;56.60;;;;;;4982497;28;115362;-81
2023/06/23 02:51:22;;;;;;;15.95;13.35;;;24.70;57.10;;;;;;4967552;28;114570;-80
2023/06/23 02:54:00;;;;;;;16.02;13.27;;;24.80;56.90;;;;;;4967245;28;114220;-80
2023/06/23 02:56:29;;;;;;;14.57;13.02;;;24.90;56.60;;;;;;4965424;28;117522;-80
2023/06/23 02:59:02;;;;;;;14.68;13.23;;;25.00;56.30;;;;;;4982617;28;116921;-79
2023/06/23 03:01:31;;;;;;;17.38;13.70;;;25.10;56.20;;;;;;4984937;28;114195;-80
2023/06/23 03:03:58;;;;;;;16.42;13.07;;;25.10;56.20;;;;;;4965568;28;114605;-81
2023/06/23 03:06:25;;;;;;;13.40;11.98;;;25.10;56.10;;;;;;4977827;28;115549;-80
2023/06/23 03:08:54;;;;;;;14.00;12.60;;;25.10;56.10;;;;;;4983742;28;115237;-80
2023/06/23 03:11:21;;;;;;;14.32;12.55;;;25.20;56.00;;;;;;4984512;28;114237;-81
2023/06/23 03:13:48;;;;;;;15.10;12.65;;;25.30;55.80;;;;;;4985260;28;114549;-80
2023/06/23 03:16:29;;;;;;;15.57;12.93;;;25.30;55.90;;;;;;4983099;28;115528;-80
2023/06/23 03:19:34;;;;;;;14.18;12.63;;;25.40;55.40;;;;;;4979899;28;115136;-81
2023/06/23 03:22:07;;;;;;;13.00;11.68;;;25.50;55.20;;;;;;4966318;28;114614;-81
2023/06/23 03:24:38;;;;;;;14.27;12.77;;;25.50;55.30;;;;;;4966843;28;114486;-81
2023/06/23 03:27:06;;;;;;;13.85;12.45;;;25.50;55.20;;;;;;4965390;28;114923;-81
2023/06/23 03:29:38;;;;;;;18.00;13.32;;;25.60;55.20;;;;;;4965291;28;114565;-81
2023/06/23 03:32:05;;;;;;;15.50;12.02;;;25.60;55.20;;;;;;4949378;28;114541;-80
2023/06/23 03:34:41;;;;;;;14.32;12.60;;;25.50;55.20;;;;;;4965828;28;114389;-80
2023/06/23 03:37:12;;;;;;;14.23;12.50;;;25.50;55.30;;;;;;4965203;28;114890;-81
2023/06/23 03:39:40;;;;;;;17.75;11.98;;;25.50;55.30;;;;;;4981424;28;115432;-81
2023/06/23 03:42:07;;;;;;;13.30;11.70;;;25.60;55.20;;;;;;4982199;28;114254;-81
2023/06/23 03:44:40;;;;;;;13.82;12.35;;;25.60;55.10;;;;;;4965812;28;114432;-81
2023/06/23 03:47:21;;;;;;;14.03;11.40;;;25.70;54.90;;;;;;4981749;28;114853;-80
2023/06/23 03:49:59;;;;;;;13.25;11.85;;;25.70;54.90;;;;;;4981616;28;115252;-80
2023/06/23 03:52:26;;;;;;;14.02;12.18;;;25.80;54.90;;;;;;4977718;28;114677;-80
2023/06/23 03:54:53;;;;;;;13.38;11.98;;;25.80;54.80;;;;;;4983326;28;114478;-80
2023/06/23 03:57:24;;;;;;;13.88;11.73;;;25.80;54.60;;;;;;4980326;28;115645;-81
2023/06/23 03:59:52;;;;;;;16.63;12.80;;;25.80;54.50;;;;;;4980453;28;114746;-81
2023/06/23 04:02:20;;;;;;;14.95;11.60;;;25.90;54.80;;;;;;4982219;28;114449;-81
2023/06/23 04:04:48;;;;;;;14.32;12.30;;;25.90;54.50;;;;;;4966905;28;114476;-80
2023/06/23 04:07:15;;;;;;;13.32;11.85;;;25.90;54.70;;;;;;4965298;28;115195;-80
2023/06/23 04:09:45;;;;;;;14.75;13.23;;;25.90;54.30;;;;;;4981976;28;117374;-80
2023/06/23 04:12:16;;;;;;;16.30;11.98;;;25.90;54.80;;;;;;4982701;28;118626;-79
2023/06/23 04:14:46;;;;;;;14.27;11.50;;;25.90;55.30;;;;;;4983249;28;114301;-80
2023/06/23 04:17:14;;;;;;;15.75;13.88;;;25.60;55.70;;;;;;4965256;28;114970;-80
2023/06/23 04:19:42;;;;;;;13.52;12.07;;;25.60;56.20;;;;;;4981070;28;115943;-80
2023/06/23 04:22:09;;;;;;;14.27;11.95;;;25.50;56.40;;;;;;4949113;28;116847;-82
2023/06/23 04:24:37;;;;;;;15.70;11.60;;;25.40;56.90;;;;;;4982805;28;114764;-80
2023/06/23 04:27:04;;;;;;;13.90;12.20;;;25.30;56.10;;;;;;4981785;28;115084;-80
2023/06/23 04:29:32;;;;;;;15.48;12.85;;;25.40;56.30;;;;;;4981790;28;114720;-80
2023/06/23 04:32:00;;;;;;;12.85;11.35;;;25.50;56.70;;;;;;4965923;28;114579;-81
2023/06/23 04:34:28;;;;;;;12.75;11.25;;;25.60;56.50;;;;;;4982952;28;114546;-82
2023/06/23 04:37:02;;;;;;;16.25;11.15;;;25.50;56.60;;;;;;4965519;28;116915;-81
2023/06/23 04:39:36;;;;;;;13.02;11.65;;;25.60;57.00;;;;;;4981478;28;114572;-81
2023/06/23 04:42:04;;;;;;;15.45;11.43;;;25.60;57.10;;;;;;4982238;28;114578;-80
2023/06/23 04:44:34;;;;;;;14.88;10.80;;;25.70;57.20;;;;;;4966242;28;114316;-81
2023/06/23 04:47:02;;;;;;;13.65;11.70;;;25.90;57.00;;;;;;4981028;28;115082;-79
2023/06/23 04:49:29;;;;;;;14.75;11.10;;;26.00;56.70;;;;;;4981540;28;114763;-80
2023/06/23 04:51:56;;;;;;;14.05;11.18;;;26.30;56.50;;;;;;4982104;28;114571;-80
2023/06/23 04:54:31;;;;;;;13.52;11.25;;;26.30;56.10;;;;;;4982137;28;114345;-81
2023/06/23 04:57:01;;;;;;;16.15;12.55;;;26.50;55.60;;;;;;4963999;28;114895;-80
2023/06/23 04:59:33;;;;;;;12.95;11.32;;;26.50;55.00;;;;;;4965012;28;114675;-81
2023/06/23 05:02:01;;;;;;;13.45;11.65;;;26.50;54.80;;;;;;4963711;28;114459;-80
2023/06/23 05:04:29;;;;;;;21.13;11.57;;;26.50;54.60;;;;;;4981365;28;115287;-80
2023/06/23 05:06:56;;;;;;;12.93;11.25;;;26.40;55.70;;;;;;4963397;28;115564;-80
2023/06/23 05:09:24;;;;;;;17.42;12.63;;;26.30;55.40;;;;;;4964265;28;117848;-79
2023/06/23 05:11:52;;;;;;;20.80;14.05;;;26.30;55.70;;;;;;4963866;28;114342;-79
2023/06/23 05:14:19;;;;;;;17.20;14.23;;;26.00;56.10;;;;;;4981858;28;115628;-79
2023/06/23 05:16:47;;;;;;;16.58;13.05;;;25.80;57.00;;;;;;4963885;28;115196;-79
2023/06/23 05:19:14;;;;;;;16.98;13.68;;;25.50;57.00;;;;;;4978390;28;117095;-81
2023/06/23 05:21:41;;;;;;;21.17;15.48;;;25.40;57.20;;;;;;4963039;28;119383;-80
2023/06/23 05:24:10;;;;;;;21.17;14.75;;;25.30;58.50;;;;;;4962764;28;115201;-79
2023/06/23 05:26:37;;;;;;;15.55;13.75;;;25.20;58.90;;;;;;4962824;28;119280;-79
2023/06/23 05:29:08;;;;;;;15.63;12.32;;;25.00;58.90;;;;;;4964469;28;118247;-79
2023/06/23 05:31:44;;;;;;;15.50;11.68;;;25.00;58.50;;;;;;4978441;28;114196;-80
2023/06/23 05:34:14;;;;;;;18.92;14.18;;;24.90;58.00;;;;;;4947583;28;114804;-81
2023/06/23 05:36:41;;;;;;;15.75;13.65;;;24.90;58.70;;;;;;4962134;28;115333;-81
2023/06/23 05:39:09;;;;;;;15.48;13.70;;;24.90;58.50;;;;;;4960183;28;116968;-80
2023/06/23 05:41:36;;;;;;;16.15;13.43;;;24.90;59.00;;;;;;4947752;28;115354;-81
2023/06/23 05:44:03;;;;;;;17.85;15.65;;;24.90;58.50;;;;;;4979754;28;114570;-81
2023/06/23 05:46:32;;;;;;;21.02;15.95;;;24.90;58.80;;;;;;4963493;28;114945;-81
2023/06/23 05:49:03;;;;;;;20.80;15.90;;;24.80;58.80;;;;;;4963809;28;115749;-82
2023/06/23 05:51:31;;;;;;;18.45;14.60;;;24.60;59.50;;;;;;4960372;28;114643;-82
2023/06/23 05:54:01;;;;;;;16.02;13.38;;;24.40;60.20;;;;;;4963179;28;114563;-82
2023/06/23 05:56:42;;;;;;;17.20;14.23;;;24.20;61.00;;;;;;4961357;28;114839;-82
2023/06/23 05:59:15;;;;;;;14.30;12.80;;;24.10;61.60;;;;;;4961708;28;115012;-81
2023/06/23 06:01:45;;;;;;;16.33;13.85;;;24.00;61.00;;;;;;4961710;28;114595;-82
2023/06/23 06:04:16;;;;;;;17.80;13.35;;;24.10;61.70;;;;;;4974281;28;114657;-82
2023/06/23 06:06:44;;;;;;;16.50;13.32;;;24.30;60.90;;;;;;4977470;28;116312;-80
2023/06/23 06:09:13;;;;;;;20.08;15.48;;;24.50;61.00;;;;;;4945131;28;114873;-81
2023/06/23 06:11:42;;;;;;;21.25;14.85;;;24.50;61.10;;;;;;4962452;28;114713;-82
2023/06/23 06:14:09;;;;;;;17.60;15.25;;;24.50;61.00;;;;;;4976559;28;114455;-81
2023/06/23 06:16:38;;;;;;;14.35;12.85;;;24.30;60.90;;;;;;4946028;28;114884;-81
2023/06/23 06:19:06;;;;;;;14.18;12.68;;;24.40;60.30;;;;;;4945664;28;115981;-80
2023/06/23 06:21:35;;;;;;;14.55;13.02;;;24.30;60.70;;;;;;4978161;28;114308;-81
2023/06/23 06:24:03;;;;;;;18.83;14.75;;;24.30;61.00;;;;;;4963103;28;114387;-81
2023/06/23 06:26:31;;;;;;;18.13;14.57;;;24.30;61.50;;;;;;4944225;28;114936;-81
2023/06/23 06:29:04;;;;;;;18.30;16.05;;;24.30;61.30;;;;;;4969773;28;114714;-84
2023/06/23 06:31:35;;;;;;;17.60;15.55;;;24.40;61.60;;;;;;4965469;28;114442;-80
2023/06/23 06:34:03;;;;;;;19.35;16.38;;;24.50;61.60;;;;;;4964313;28;114324;-79
2023/06/23 06:36:32;;;;;;;18.50;16.25;;;24.40;62.00;;;;;;4929803;28;118073;-80
2023/06/23 06:39:00;;;;;;;17.65;14.60;;;24.30;62.00;;;;;;4931258;28;116053;-80
2023/06/23 06:41:28;;;;;;;22.75;18.27;;;24.30;61.50;;;;;;4963849;28;114518;-81
2023/06/23 06:43:57;;;;;;;27.30;22.67;;;24.30;61.50;;;;;;4979574;28;114437;-80
2023/06/23 06:46:25;;;;;;;21.42;18.08;;;24.40;62.40;;;;;;4963413;28;114910;-82
2023/06/23 06:48:53;;;;;;;19.85;16.20;;;24.60;61.50;;;;;;4978175;28;115217;-81
2023/06/23 06:51:20;;;;;;;17.10;14.32;;;24.70;60.90;;;;;;4944504;28;114614;-80
2023/06/23 06:53:47;;;;;;;30.92;23.23;;;24.90;60.10;;;;;;4961197;28;114450;-81
2023/06/23 06:56:15;;;;;;;27.00;21.15;;;25.10;61.50;;;;;;4977693;28;115480;-80
2023/06/23 06:58:42;;;;;;;30.00;21.90;;;25.20;61.30;;;;;;4977399;28;115165;-81
2023/06/23 07:01:11;;;;;;;30.15;21.27;;;25.20;61.50;;;;;;4964736;28;114534;-80
2023/06/23 07:03:52;;;;;;;29.50;21.90;;;24.90;62.20;;;;;;4979294;28;114289;-82
2023/06/23 07:06:27;;;;;;;26.00;20.30;;;24.70;62.80;;;;;;4961386;28;114848;-80
2023/06/23 07:08:55;;;;;;;25.20;18.30;;;24.60;63.30;;;;;;4960019;28;115268;-80
2023/06/23 07:11:22;;;;;;;14.75;13.13;;;24.70;62.90;;;;;;4978807;28;114652;-81
2023/06/23 07:13:49;;;;;;;29.63;24.83;;;24.80;60.70;;;;;;4960814;28;114521;-81
2023/06/23 07:16:17;;;;;;;23.58;18.60;;;25.00;62.30;;;;;;4961238;28;116265;-81
2023/06/23 07:18:45;;;;;;;23.25;18.92;;;25.20;62.00;;;;;;4962728;28;116325;-80
2023/06/23 07:21:12;;;;;;;13.55;12.15;;;25.30;62.00;;;;;;4961990;28;115844;-80
2023/06/23 07:23:39;;;;;;;22.83;18.67;;;25.30;59.00;;;;;;4964478;28;114521;-81
2023/06/23 07:26:06;;;;;;;26.00;21.05;;;25.50;61.60;;;;;;4961865;28;114990;-81
2023/06/23 07:28:33;;;;;;;18.45;14.32;;;25.70;61.50;;;;;;4962748;28;114603;-80
2023/06/23 07:31:00;;;;;;;21.65;16.90;;;25.80;58.90;;;;;;4978521;28;114484;-79
2023/06/23 07:33:28;;;;;;;22.95;19.50;;;26.00;59.00;;;;;;4963449;28;114607;-80
2023/06/23 07:35:58;;;;;;;25.40;20.58;;;26.20;59.90;;;;;;4964360;28;115578;-79
2023/06/23 07:38:27;;;;;;;26.48;22.25;;;26.30;59.80;;;;;;4966354;28;115696;-80
2023/06/23 07:40:56;;;;;;;26.90;21.15;;;26.40;60.80;;;;;;4981241;28;114452;-81
2023/06/23 07:43:36;;;;;;;24.55;19.75;;;26.50;59.70;;;;;;4965849;28;114319;-81
2023/06/23 07:46:22;;;;;;;30.83;23.25;;;26.60;59.30;;;;;;4964838;28;116155;-80
2023/06/23 07:48:51;;;;;;;27.92;22.10;;;26.60;60.20;;;;;;4965465;28;115902;-80
2023/06/23 07:51:18;;;;;;;25.40;20.77;;;26.80;60.00;;;;;;4967142;28;117993;-79
2023/06/23 07:53:46;;;;;;;22.65;18.05;;;26.80;59.70;;;;;;4964868;28;114526;-81
2023/06/23 07:56:29;;;;;;;25.20;19.40;;;26.90;58.20;;;;;;4949235;28;114931;-81
2023/06/23 07:59:25;;;;;;;22.25;18.60;;;26.90;59.60;;;;;;4949533;28;116639;-81
2023/06/23 08:01:55;;;;;;;19.23;17.20;;;27.00;59.50;;;;;;4964796;28;114385;-81
2023/06/23 08:04:22;;;;;;;19.50;17.23;;;27.20;59.50;;;;;;4966430;28;114484;-79
2023/06/23 08:06:50;;;;;;;19.77;17.17;;;27.30;59.30;;;;;;4964459;28;116056;-80
2023/06/23 08:09:21;;;;;;;20.00;17.67;;;27.30;59.10;;;;;;4965522;28;114662;-80
2023/06/23 08:11:48;;;;;;;20.98;18.73;;;27.50;59.30;;;;;;4961877;28;114326;-80
2023/06/23 08:14:16;;;;;;;18.65;16.75;;;27.60;58.80;;;;;;4968168;28;117200;-80
2023/06/23 08:16:43;;;;;;;21.63;18.13;;;27.70;58.50;;;;;;4976667;28;117061;-80
2023/06/23 08:19:10;;;;;;;19.63;17.05;;;27.70;58.30;;;;;;4982537;28;116081;-80
2023/06/23 08:21:37;;;;;;;20.60;15.95;;;27.80;58.10;;;;;;4964111;28;114523;-81
2023/06/23 08:24:05;;;;;;;18.55;15.45;;;27.80;57.70;;;;;;4966983;28;114452;-80
2023/06/23 08:26:32;;;;;;;18.75;16.85;;;27.80;57.70;;;;;;4964762;28;114964;-80
2023/06/23 08:28:59;;;;;;;19.38;17.10;;;27.90;57.70;;;;;;4965534;28;114874;-80
2023/06/23 08:31:27;;;;;;;23.27;17.02;;;27.90;57.90;;;;;;4981367;28;114365;-80
2023/06/23 08:33:54;;;;;;;18.67;16.80;;;27.90;57.70;;;;;;4965660;28;114408;-80
2023/06/23 08:36:21;;;;;;;19.63;16.70;;;28.00;57.80;;;;;;4964706;28;115078;-80
2023/06/23 08:38:48;;;;;;;20.90;16.98;;;28.10;57.30;;;;;;4963492;28;115247;-81
2023/06/23 08:41:15;;;;;;;19.58;16.73;;;28.20;57.10;;;;;;4962247;28;114226;-81
2023/06/23 08:43:45;;;;;;;19.67;16.45;;;28.30;56.60;;;;;;4965617;28;114458;-81
2023/06/23 08:46:14;;;;;;;17.30;14.70;;;28.30;56.30;;;;;;4964269;28;115293;-81
2023/06/23 08:48:46;;;;;;;16.13;14.45;;;28.40;55.80;;;;;;4966609;28;114592;-81
2023/06/23 08:51:13;;;;;;;16.38;14.13;;;28.50;54.80;;;;;;4982508;28;115387;-80
2023/06/23 08:53:41;;;;;;;18.85;14.40;;;28.60;54.60;;;;;;4967041;28;114197;-81
2023/06/23 08:56:08;;;;;;;17.92;13.35;;;28.70;54.00;;;;;;4978688;28;116129;-80
2023/06/23 08:58:35;;;;;;;16.05;13.23;;;28.80;53.40;;;;;;4964010;28;117613;-80
2023/06/23 09:01:05;;;;;;;15.80;13.23;;;28.80;53.00;;;;;;4981614;28;114578;-81
2023/06/23 09:03:34;;;;;;;18.88;14.65;;;28.90;53.00;;;;;;4965665;28;114248;-81
2023/06/23 09:06:03;;;;;;;19.77;13.50;;;28.90;52.90;;;;;;4965487;28;114849;-81
2023/06/23 09:08:31;;;;;;;18.60;13.65;;;29.00;52.80;;;;;;4964948;28;114745;-81
2023/06/23 09:10:58;;;;;;;14.57;11.85;;;29.10;52.10;;;;;;4966530;28;117396;-81
2023/06/23 09:13:30;;;;;;;14.95;12.48;;;29.20;51.00;;;;;;4966061;28;114169;-80
2023/06/23 09:15:58;;;;;;;12.70;10.40;;;29.20;50.90;;;;;;4981188;28;115051;-81
2023/06/23 09:18:38;;;;;;;14.90;10.77;;;29.30;50.40;;;;;;4948887;28;116925;-80
2023/06/23 09:21:07;;;;;;;17.40;12.43;;;29.40;50.20;;;;;;4968122;28;116628;-81
2023/06/23 09:23:34;;;;;;;13.23;11.23;;;29.50;50.00;;;;;;4985407;28;114351;-80
2023/06/23 09:26:03;;;;;;;14.85;10.45;;;29.70;49.80;;;;;;5000683;28;115183;-80
2023/06/23 09:28:35;;;;;;;15.88;10.85;;;29.70;49.90;;;;;;5000390;28;117171;-80
2023/06/23 09:31:16;;;;;;;14.13;10.68;;;29.80;49.40;;;;;;4986481;28;114174;-81
2023/06/23 09:33:56;;;;;;;12.68;9.90;;;29.90;49.60;;;;;;4986726;28;114305;-80
2023/06/23 09:36:52;;;;;;;10.98;9.65;;;29.80;49.40;;;;;;4999334;28;115236;-80
2023/06/23 09:39:19;;;;;;;13.00;9.52;;;29.80;48.90;;;;;;4984544;28;117058;-81
2023/06/23 09:41:54;;;;;;;11.18;8.80;;;29.90;48.30;;;;;;4986196;28;114370;-80
2023/06/23 09:44:21;;;;;;;12.52;9.05;;;29.80;48.10;;;;;;4985757;28;114742;-80
2023/06/23 09:46:59;;;;;;;12.35;9.07;;;29.80;48.20;;;;;;5000750;28;114922;-79
2023/06/23 09:49:27;;;;;;;15.10;9.05;;;29.90;48.00;;;;;;5000775;28;115444;-81
2023/06/23 09:51:54;;;;;;;10.90;8.55;;;29.90;47.90;;;;;;4985734;28;114284;-81
2023/06/23 09:54:51;;;;;;;12.40;8.45;;;29.90;47.40;;;;;;5002048;28;114263;-81
2023/06/23 09:57:19;;;;;;;14.35;8.98;;;29.90;47.50;;;;;;4975992;28;114878;-82
2023/06/23 09:59:50;;;;;;;12.35;8.50;;;29.90;47.20;;;;;;4980780;28;114664;-81
2023/06/23 10:02:27;;;;;;;14.80;8.90;;;29.90;47.20;;;;;;4965225;28;114526;-81
2023/06/23 10:05:04;;;;;;;13.00;8.38;;;29.90;47.30;;;;;;4966660;28;114316;-81
2023/06/23 10:07:32;;;;;;;10.77;8.90;;;29.90;47.50;;;;;;4967764;28;117367;-81
2023/06/23 10:10:04;;;;;;;16.95;8.63;;;29.90;47.30;;;;;;4983365;28;116046;-78
2023/06/23 10:12:48;;;;;;;14.25;7.38;;;29.90;46.60;;;;;;4978288;28;114564;-80
2023/06/23 10:15:15;;;;;;;11.23;7.38;;;29.90;46.50;;;;;;4971256;28;114859;-80
2023/06/23 10:17:42;;;;;;;9.13;5.40;;;29.90;46.20;;;;;;4980592;28;114913;-80
2023/06/23 10:20:10;;;;;;;8.07;4.95;;;30.10;43.30;;;;;;4982516;28;114681;-80
2023/06/23 10:22:42;;;;;;;10.07;5.50;;;30.10;42.60;;;;;;4969155;28;114522;-80
2023/06/23 10:25:10;;;;;;;7.75;5.05;;;30.10;42.50;;;;;;5001512;28;114543;-80
2023/06/23 10:27:37;;;;;;;9.88;5.18;;;30.20;42.80;;;;;;4972266;28;115045;-80
2023/06/23 10:30:06;;;;;;;12.98;5.40;;;30.20;42.00;;;;;;4981571;28;114505;-80
2023/06/23 10:32:34;;;;;;;9.73;5.40;;;30.30;42.10;;;;;;4981878;28;114373;-80
2023/06/23 10:35:09;;;;;;;10.10;5.40;;;30.30;41.10;;;;;;4967303;28;114310;-80
2023/06/23 10:37:36;;;;;;;8.77;5.90;;;30.30;41.40;;;;;;4980482;28;114473;-81
2023/06/23 10:40:11;;;;;;;9.57;6.30;;;30.30;41.70;;;;;;4965721;28;114650;-80
2023/06/23 10:42:38;;;;;;;10.73;6.18;;;30.30;41.90;;;;;;4967973;28;114334;-80
2023/06/23 10:45:06;;;;;;;11.20;6.57;;;30.40;42.70;;;;;;4984399;28;114241;-82
2023/06/23 10:47:37;;;;;;;9.32;6.25;;;30.50;42.90;;;;;;4984759;28;114978;-80
2023/06/23 10:50:08;;;;;;;11.00;6.50;;;30.40;42.60;;;;;;4999936;28;116755;-80
2023/06/23 10:52:36;;;;;;;13.10;7.25;;;30.40;42.50;;;;;;5000590;28;114348;-80
2023/06/23 10:55:46;;;;;;;11.38;6.82;;;30.40;42.70;;;;;;4984852;28;114609;-81
2023/06/23 10:58:49;;;;;;;10.13;6.90;;;30.30;43.20;;;;;;4969328;28;115074;-80
2023/06/23 11:04:05;;;;;;;12.25;6.80;;;30.10;42.90;;;;;;4982916;28;114374;-80
2023/06/23 11:06:36;;;;;;;11.70;6.80;;;29.90;43.60;;;;;;4927302;28;114540;-80
2023/06/23 11:09:38;;;;;;;10.00;6.88;;;29.90;44.10;;;;;;4944704;28;114908;-81
2023/06/23 11:12:28;;;;;;;9.60;6.97;;;29.80;43.80;;;;;;4930765;28;115352;-84
2023/06/23 11:15:08;;;;;;;10.10;6.80;;;29.60;43.90;;;;;;4950329;28;114364;-80
2023/06/23 11:17:59;;;;;;;10.05;6.68;;;29.50;44.20;;;;;;4947621;28;114400;-80
2023/06/23 11:20:28;;;;;;;10.25;6.82;;;29.50;44.50;;;;;;4929802;28;116276;-80
2023/06/23 11:23:04;;;;;;;12.55;7.18;;;29.40;44.90;;;;;;4947159;28;114849;-80
2023/06/23 11:25:52;;;;;;;10.10;6.78;;;29.40;44.80;;;;;;4947046;28;114393;-81
2023/06/23 11:28:39;;;;;;;10.10;6.07;;;29.40;45.20;;;;;;4932242;28;115424;-82
2023/06/23 11:31:17;;;;;;;11.20;6.25;;;29.40;44.40;;;;;;4945269;28;115187;-80
2023/06/23 11:33:55;;;;;;;10.07;5.93;;;29.30;44.30;;;;;;4929543;28;115803;-82
2023/06/23 11:36:43;;;;;;;8.20;6.35;;;29.40;44.70;;;;;;4947563;28;114604;-81
2023/06/23 11:39:11;;;;;;;14.13;6.50;;;29.30;45.20;;;;;;4983311;28;114456;-80
2023/06/23 11:41:38;;;;;;;10.98;6.78;;;29.40;45.10;;;;;;4982575;28;115187;-80
2023/06/23 11:44:06;;;;;;;10.90;6.40;;;29.50;45.10;;;;;;4967078;28;117336;-79
2023/06/23 11:46:34;;;;;;;9.90;6.80;;;29.70;44.80;;;;;;4983040;28;114175;-81
2023/06/23 11:49:10;;;;;;;10.13;6.07;;;29.80;44.60;;;;;;4975046;28;114425;-80
2023/06/23 11:51:38;;;;;;;10.90;6.68;;;29.80;44.30;;;;;;4986737;28;115674;-81
2023/06/23 11:54:06;;;;;;;14.95;7.13;;;29.90;44.50;;;;;;5002532;28;115192;-80
2023/06/23 11:56:33;;;;;;;9.77;6.22;;;30.00;44.30;;;;;;5002660;28;114306;-79
2023/06/23 11:59:02;;;;;;;10.60;6.85;;;30.10;44.50;;;;;;4986644;28;114516;-81
2023/06/23 12:01:30;;;;;;;9.35;6.20;;;30.20;44.60;;;;;;5002155;28;115370;-80
2023/06/23 12:03:57;;;;;;;11.85;6.28;;;30.20;44.50;;;;;;4986882;28;114638;-81
2023/06/23 12:06:27;;;;;;;9.85;6.30;;;30.30;43.50;;;;;;4987716;28;114463;-80
2023/06/23 12:08:55;;;;;;;10.52;5.95;;;30.20;43.20;;;;;;4959116;28;114364;-81
2023/06/23 12:11:23;;;;;;;9.05;5.97;;;30.20;43.30;;;;;;5001357;28;114823;-81
2023/06/23 12:13:53;;;;;;;8.80;5.50;;;30.20;43.80;;;;;;4985996;28;116103;-81
2023/06/23 12:16:20;;;;;;;10.27;5.60;;;30.20;43.40;;;;;;4977376;28;114078;-80
2023/06/23 12:18:48;;;;;;;9.57;5.55;;;30.20;43.30;;;;;;4961604;28;114250;-80
2023/06/23 12:21:20;;;;;;;7.60;5.05;;;30.20;43.50;;;;;;4965385;28;115092;-81
2023/06/23 12:23:48;;;;;;;10.60;5.10;;;30.30;43.70;;;;;;4965653;28;115205;-80
2023/06/23 12:26:18;;;;;;;7.00;4.32;;;30.30;43.60;;;;;;4972343;28;114436;-80
2023/06/23 12:28:45;;;;;;;7.97;4.72;;;30.30;42.50;;;;;;4980636;28;114405;-80
2023/06/23 12:31:12;;;;;;;9.13;4.60;;;30.30;42.60;;;;;;4966327;28;115023;-80
2023/06/23 12:33:40;;;;;;;8.77;4.65;;;30.30;42.90;;;;;;4966649;28;114971;-80
2023/06/23 12:36:09;;;;;;;8.23;4.47;;;30.30;42.60;;;;;;4967495;28;114406;-81
2023/06/23 12:38:37;;;;;;;8.57;4.78;;;30.30;42.80;;;;;;4981871;28;114672;-81
2023/06/23 12:41:17;;;;;;;9.18;4.15;;;30.30;42.90;;;;;;4981655;28;115504;-81